sensor_id;sensor_type;location;lat;lon;timestamp;P1;durP1;ratioP1;P2;durP2;ratioP2
2123;SDS011;1068;52.460;13.528;2023-10-09T00:00:56;2.23;;;1.50;;
2123;SDS011;1068;52.460;13.528;2023-10-09T00:03:29;1.60;;;1.50;;
2123;SDS011;1068;52.460;13.528;2023-10-09T00:05:56;1.50;;;1.40;;
2123;SDS011;1068;52.460;13.528;2023-10-09T00:08:25;2.30;;;2.10;;
2123;SDS011;1068;52.460;13.528;2023-10-09T00:10:55;1.40;;;1.30;;
2123;SDS011;1068;52.460;13.528;2023-10-09T00:13:24;3.90;;;1.53;;
2123;SDS011;1068;52.460;13.528;2023-10-09T00:15:55;1.80;;;1.70;;
2123;SDS011;1068;52.460;13.528;2023-10-09T00:18:25;1.70;;;1.60;;
2123;SDS011;1068;52.460;13.528;2023-10-09T00:20:55;2.13;;;1.40;;
2123;SDS011;1068;52.460;13.528;2023-10-09T00:23:27;1.70;;;1.40;;
2123;SDS011;1068;52.460;13.528;2023-10-09T00:25:56;1.50;;;1.40;;
2123;SDS011;1068;52.460;13.528;2023-10-09T00:28:41;1.50;;;1.40;;
2123;SDS011;1068;52.460;13.528;2023-10-09T00:31:09;1.60;;;1.50;;
2123;SDS011;1068;52.460;13.528;2023-10-09T00:33:40;2.10;;;1.93;;
2123;SDS011;1068;52.460;13.528;2023-10-09T00:36:08;2.23;;;1.60;;
2123;SDS011;1068;52.460;13.528;2023-10-09T00:38:35;1.50;;;1.40;;
2123;SDS011;1068;52.460;13.528;2023-10-09T00:41:05;2.03;;;1.83;;
2123;SDS011;1068;52.460;13.528;2023-10-09T00:43:36;2.43;;;1.50;;
2123;SDS011;1068;52.460;13.528;2023-10-09T00:46:08;1.60;;;1.50;;
2123;SDS011;1068;52.460;13.528;2023-10-09T00:48:49;1.83;;;1.60;;
2123;SDS011;1068;52.460;13.528;2023-10-09T00:51:16;3.10;;;1.90;;
2123;SDS011;1068;52.460;13.528;2023-10-09T00:53:45;2.93;;;1.60;;
2123;SDS011;1068;52.460;13.528;2023-10-09T00:56:15;2.00;;;1.50;;
2123;SDS011;1068;52.460;13.528;2023-10-09T00:58:53;2.17;;;1.80;;
2123;SDS011;1068;52.460;13.528;2023-10-09T01:01:24;7.83;;;1.47;;
2123;SDS011;1068;52.460;13.528;2023-10-09T01:03:53;2.03;;;1.57;;
2123;SDS011;1068;52.460;13.528;2023-10-09T01:06:21;6.23;;;2.00;;
2123;SDS011;1068;52.460;13.528;2023-10-09T01:08:54;1.63;;;1.53;;
2123;SDS011;1068;52.460;13.528;2023-10-09T01:11:34;2.10;;;1.50;;
2123;SDS011;1068;52.460;13.528;2023-10-09T01:14:12;1.93;;;1.80;;
2123;SDS011;1068;52.460;13.528;2023-10-09T01:16:39;1.40;;;1.30;;
2123;SDS011;1068;52.460;13.528;2023-10-09T01:19:07;1.77;;;1.67;;
2123;SDS011;1068;52.460;13.528;2023-10-09T01:21:44;3.87;;;1.90;;
2123;SDS011;1068;52.460;13.528;2023-10-09T01:24:13;1.93;;;1.77;;
2123;SDS011;1068;52.460;13.528;2023-10-09T01:26:41;1.90;;;1.50;;
2123;SDS011;1068;52.460;13.528;2023-10-09T01:29:11;5.63;;;1.87;;
2123;SDS011;1068;52.460;13.528;2023-10-09T01:31:41;2.77;;;1.63;;
2123;SDS011;1068;52.460;13.528;2023-10-09T01:34:16;3.30;;;2.10;;
2123;SDS011;1068;52.460;13.528;2023-10-09T01:36:43;2.83;;;2.07;;
2123;SDS011;1068;52.460;13.528;2023-10-09T01:39:15;1.80;;;1.57;;
2123;SDS011;1068;52.460;13.528;2023-10-09T01:41:51;1.90;;;1.77;;
2123;SDS011;1068;52.460;13.528;2023-10-09T01:44:23;1.93;;;1.67;;
2123;SDS011;1068;52.460;13.528;2023-10-09T01:46:50;3.00;;;1.60;;
2123;SDS011;1068;52.460;13.528;2023-10-09T01:49:20;5.57;;;1.70;;
2123;SDS011;1068;52.460;13.528;2023-10-09T01:51:54;1.70;;;1.60;;
2123;SDS011;1068;52.460;13.528;2023-10-09T01:54:24;2.43;;;1.80;;
2123;SDS011;1068;52.460;13.528;2023-10-09T01:57:01;2.00;;;1.50;;
2123;SDS011;1068;52.460;13.528;2023-10-09T01:59:30;2.23;;;1.50;;
2123;SDS011;1068;52.460;13.528;2023-10-09T02:01:57;2.07;;;1.60;;
2123;SDS011;1068;52.460;13.528;2023-10-09T02:04:25;2.30;;;1.60;;
2123;SDS011;1068;52.460;13.528;2023-10-09T02:06:54;2.07;;;1.57;;
2123;SDS011;1068;52.460;13.528;2023-10-09T02:09:21;2.53;;;2.10;;
2123;SDS011;1068;52.460;13.528;2023-10-09T02:11:57;1.50;;;1.40;;
2123;SDS011;1068;52.460;13.528;2023-10-09T02:14:25;2.10;;;1.67;;
2123;SDS011;1068;52.460;13.528;2023-10-09T02:16:52;3.13;;;1.87;;
2123;SDS011;1068;52.460;13.528;2023-10-09T02:19:32;2.63;;;1.93;;
2123;SDS011;1068;52.460;13.528;2023-10-09T02:22:00;4.00;;;2.13;;
2123;SDS011;1068;52.460;13.528;2023-10-09T02:24:37;2.23;;;1.83;;
2123;SDS011;1068;52.460;13.528;2023-10-09T02:27:18;2.80;;;1.53;;
2123;SDS011;1068;52.460;13.528;2023-10-09T02:30:03;3.10;;;1.93;;
2123;SDS011;1068;52.460;13.528;2023-10-09T02:32:40;4.10;;;1.87;;
2123;SDS011;1068;52.460;13.528;2023-10-09T02:35:07;2.70;;;2.07;;
2123;SDS011;1068;52.460;13.528;2023-10-09T02:37:44;2.80;;;1.80;;
2123;SDS011;1068;52.460;13.528;2023-10-09T02:40:12;2.27;;;2.07;;
2123;SDS011;1068;52.460;13.528;2023-10-09T02:42:49;2.87;;;1.97;;
2123;SDS011;1068;52.460;13.528;2023-10-09T02:45:16;3.80;;;2.10;;
2123;SDS011;1068;52.460;13.528;2023-10-09T02:47:43;2.87;;;1.97;;
2123;SDS011;1068;52.460;13.528;2023-10-09T02:50:13;2.40;;;1.70;;
2123;SDS011;1068;52.460;13.528;2023-10-09T02:52:46;3.97;;;2.57;;
2123;SDS011;1068;52.460;13.528;2023-10-09T02:55:18;4.33;;;2.17;;
2123;SDS011;1068;52.460;13.528;2023-10-09T02:57:52;3.40;;;2.57;;
2123;SDS011;1068;52.460;13.528;2023-10-09T03:00:30;3.93;;;2.40;;
2123;SDS011;1068;52.460;13.528;2023-10-09T03:02:57;3.60;;;2.20;;
2123;SDS011;1068;52.460;13.528;2023-10-09T03:05:24;3.33;;;1.97;;
2123;SDS011;1068;52.460;13.528;2023-10-09T03:07:53;2.03;;;1.87;;
2123;SDS011;1068;52.460;13.528;2023-10-09T03:10:21;6.33;;;2.80;;
2123;SDS011;1068;52.460;13.528;2023-10-09T03:12:52;2.13;;;1.93;;
2123;SDS011;1068;52.460;13.528;2023-10-09T03:15:19;2.33;;;2.07;;
2123;SDS011;1068;52.460;13.528;2023-10-09T03:17:46;1.93;;;1.83;;
2123;SDS011;1068;52.460;13.528;2023-10-09T03:20:13;4.60;;;2.63;;
2123;SDS011;1068;52.460;13.528;2023-10-09T03:22:42;5.13;;;2.67;;
2123;SDS011;1068;52.460;13.528;2023-10-09T03:25:10;3.17;;;2.40;;
2123;SDS011;1068;52.460;13.528;2023-10-09T03:27:38;3.00;;;2.60;;
2123;SDS011;1068;52.460;13.528;2023-10-09T03:30:09;2.60;;;2.40;;
2123;SDS011;1068;52.460;13.528;2023-10-09T03:32:41;2.47;;;2.23;;
2123;SDS011;1068;52.460;13.528;2023-10-09T03:35:08;3.63;;;3.27;;
2123;SDS011;1068;52.460;13.528;2023-10-09T03:37:39;2.50;;;2.30;;
2123;SDS011;1068;52.460;13.528;2023-10-09T03:40:06;3.93;;;3.17;;
2123;SDS011;1068;52.460;13.528;2023-10-09T03:42:40;3.93;;;2.73;;
2123;SDS011;1068;52.460;13.528;2023-10-09T03:45:09;3.20;;;2.90;;
2123;SDS011;1068;52.460;13.528;2023-10-09T03:47:37;3.07;;;2.80;;
2123;SDS011;1068;52.460;13.528;2023-10-09T03:50:07;2.60;;;2.40;;
2123;SDS011;1068;52.460;13.528;2023-10-09T03:52:51;2.90;;;2.67;;
2123;SDS011;1068;52.460;13.528;2023-10-09T03:55:18;1.93;;;1.83;;
2123;SDS011;1068;52.460;13.528;2023-10-09T03:57:47;3.50;;;2.87;;
2123;SDS011;1068;52.460;13.528;2023-10-09T04:00:15;3.03;;;2.83;;
2123;SDS011;1068;52.460;13.528;2023-10-09T04:02:53;5.70;;;2.80;;
2123;SDS011;1068;52.460;13.528;2023-10-09T04:05:20;2.77;;;2.57;;
2123;SDS011;1068;52.460;13.528;2023-10-09T04:07:47;5.00;;;2.70;;
2123;SDS011;1068;52.460;13.528;2023-10-09T04:10:16;3.30;;;3.00;;
2123;SDS011;1068;52.460;13.528;2023-10-09T04:13:08;7.50;;;3.17;;
2123;SDS011;1068;52.460;13.528;2023-10-09T04:15:43;3.03;;;2.83;;
2123;SDS011;1068;52.460;13.528;2023-10-09T04:18:10;5.10;;;3.03;;
2123;SDS011;1068;52.460;13.528;2023-10-09T04:20:41;2.63;;;2.53;;
2123;SDS011;1068;52.460;13.528;2023-10-09T04:23:26;3.40;;;2.93;;
2123;SDS011;1068;52.460;13.528;2023-10-09T04:26:00;5.33;;;3.10;;
2123;SDS011;1068;52.460;13.528;2023-10-09T04:28:35;3.10;;;2.90;;
2123;SDS011;1068;52.460;13.528;2023-10-09T04:31:03;3.60;;;3.17;;
2123;SDS011;1068;52.460;13.528;2023-10-09T04:33:32;4.43;;;3.23;;
2123;SDS011;1068;52.460;13.528;2023-10-09T04:36:19;3.23;;;2.80;;
2123;SDS011;1068;52.460;13.528;2023-10-09T04:38:48;3.37;;;3.10;;
2123;SDS011;1068;52.460;13.528;2023-10-09T04:41:40;3.37;;;3.07;;
2123;SDS011;1068;52.460;13.528;2023-10-09T04:44:17;3.83;;;3.53;;
2123;SDS011;1068;52.460;13.528;2023-10-09T04:46:45;5.20;;;3.50;;
2123;SDS011;1068;52.460;13.528;2023-10-09T04:49:32;3.97;;;3.10;;
2123;SDS011;1068;52.460;13.528;2023-10-09T04:52:14;3.93;;;3.40;;
2123;SDS011;1068;52.460;13.528;2023-10-09T04:54:44;3.70;;;3.40;;
2123;SDS011;1068;52.460;13.528;2023-10-09T04:57:26;3.53;;;3.23;;
2123;SDS011;1068;52.460;13.528;2023-10-09T04:59:53;4.67;;;4.27;;
2123;SDS011;1068;52.460;13.528;2023-10-09T05:02:24;4.60;;;4.20;;
2123;SDS011;1068;52.460;13.528;2023-10-09T05:05:01;4.30;;;3.90;;
2123;SDS011;1068;52.460;13.528;2023-10-09T05:08:01;4.20;;;3.90;;
2123;SDS011;1068;52.460;13.528;2023-10-09T05:10:43;5.67;;;3.57;;
2123;SDS011;1068;52.460;13.528;2023-10-09T05:13:30;4.63;;;3.67;;
2123;SDS011;1068;52.460;13.528;2023-10-09T05:16:08;4.93;;;4.53;;
2123;SDS011;1068;52.460;13.528;2023-10-09T05:18:44;5.67;;;4.90;;
2123;SDS011;1068;52.460;13.528;2023-10-09T05:21:20;4.53;;;4.13;;
2123;SDS011;1068;52.460;13.528;2023-10-09T05:24:09;3.83;;;3.53;;
2123;SDS011;1068;52.460;13.528;2023-10-09T05:26:44;4.40;;;4.00;;
2123;SDS011;1068;52.460;13.528;2023-10-09T05:29:16;4.23;;;3.93;;
2123;SDS011;1068;52.460;13.528;2023-10-09T05:31:49;4.00;;;3.70;;
2123;SDS011;1068;52.460;13.528;2023-10-09T05:34:23;5.80;;;4.30;;
2123;SDS011;1068;52.460;13.528;2023-10-09T05:36:58;4.37;;;3.83;;
2123;SDS011;1068;52.460;13.528;2023-10-09T05:39:41;3.90;;;3.60;;
2123;SDS011;1068;52.460;13.528;2023-10-09T05:42:08;3.67;;;3.47;;
2123;SDS011;1068;52.460;13.528;2023-10-09T05:44:42;4.13;;;3.73;;
2123;SDS011;1068;52.460;13.528;2023-10-09T05:47:41;6.73;;;5.63;;
2123;SDS011;1068;52.460;13.528;2023-10-09T05:50:19;4.17;;;3.77;;
2123;SDS011;1068;52.460;13.528;2023-10-09T05:52:59;3.90;;;3.70;;
2123;SDS011;1068;52.460;13.528;2023-10-09T05:55:51;4.80;;;3.73;;
2123;SDS011;1068;52.460;13.528;2023-10-09T05:58:35;4.10;;;3.70;;
2123;SDS011;1068;52.460;13.528;2023-10-09T06:01:28;3.60;;;3.13;;
2123;SDS011;1068;52.460;13.528;2023-10-09T06:04:13;4.00;;;3.70;;
2123;SDS011;1068;52.460;13.528;2023-10-09T06:06:42;3.83;;;3.50;;
2123;SDS011;1068;52.460;13.528;2023-10-09T06:09:12;3.80;;;3.50;;
2123;SDS011;1068;52.460;13.528;2023-10-09T06:12:14;3.57;;;3.23;;
2123;SDS011;1068;52.460;13.528;2023-10-09T06:14:58;3.93;;;3.63;;
2123;SDS011;1068;52.460;13.528;2023-10-09T06:17:44;4.27;;;3.87;;
2123;SDS011;1068;52.460;13.528;2023-10-09T06:20:15;4.13;;;3.10;;
2123;SDS011;1068;52.460;13.528;2023-10-09T06:23:01;3.20;;;2.90;;
2123;SDS011;1068;52.460;13.528;2023-10-09T06:25:40;2.93;;;2.70;;
2123;SDS011;1068;52.460;13.528;2023-10-09T06:28:15;3.50;;;3.17;;
2123;SDS011;1068;52.460;13.528;2023-10-09T06:30:43;3.40;;;3.13;;
2123;SDS011;1068;52.460;13.528;2023-10-09T06:33:12;4.43;;;4.03;;
2123;SDS011;1068;52.460;13.528;2023-10-09T06:35:54;3.37;;;3.07;;
2123;SDS011;1068;52.460;13.528;2023-10-09T06:38:21;3.20;;;2.90;;
2123;SDS011;1068;52.460;13.528;2023-10-09T06:40:49;3.63;;;2.87;;
2123;SDS011;1068;52.460;13.528;2023-10-09T06:43:47;3.33;;;2.93;;
2123;SDS011;1068;52.460;13.528;2023-10-09T06:46:18;2.83;;;2.60;;
2123;SDS011;1068;52.460;13.528;2023-10-09T06:49:08;3.40;;;3.20;;
2123;SDS011;1068;52.460;13.528;2023-10-09T06:52:02;4.30;;;3.40;;
2123;SDS011;1068;52.460;13.528;2023-10-09T06:54:42;3.90;;;3.60;;
2123;SDS011;1068;52.460;13.528;2023-10-09T06:57:15;3.47;;;3.23;;
2123;SDS011;1068;52.460;13.528;2023-10-09T07:00:02;6.83;;;3.83;;
2123;SDS011;1068;52.460;13.528;2023-10-09T07:02:47;6.50;;;3.37;;
2123;SDS011;1068;52.460;13.528;2023-10-09T07:05:14;4.03;;;3.73;;
2123;SDS011;1068;52.460;13.528;2023-10-09T07:07:42;4.37;;;4.07;;
2123;SDS011;1068;52.460;13.528;2023-10-09T07:10:21;4.00;;;3.53;;
2123;SDS011;1068;52.460;13.528;2023-10-09T07:12:58;4.30;;;3.93;;
2123;SDS011;1068;52.460;13.528;2023-10-09T07:15:26;5.77;;;3.87;;
2123;SDS011;1068;52.460;13.528;2023-10-09T07:18:11;5.67;;;4.40;;
2123;SDS011;1068;52.460;13.528;2023-10-09T07:21:05;4.40;;;3.93;;
2123;SDS011;1068;52.460;13.528;2023-10-09T07:23:36;4.40;;;3.60;;
2123;SDS011;1068;52.460;13.528;2023-10-09T07:26:14;4.37;;;4.07;;
2123;SDS011;1068;52.460;13.528;2023-10-09T07:28:48;4.30;;;3.93;;
2123;SDS011;1068;52.460;13.528;2023-10-09T07:31:16;4.97;;;3.77;;
2123;SDS011;1068;52.460;13.528;2023-10-09T07:33:49;3.77;;;3.50;;
2123;SDS011;1068;52.460;13.528;2023-10-09T07:36:23;5.53;;;4.00;;
2123;SDS011;1068;52.460;13.528;2023-10-09T07:38:59;4.00;;;3.50;;
2123;SDS011;1068;52.460;13.528;2023-10-09T07:41:32;4.57;;;4.20;;
2123;SDS011;1068;52.460;13.528;2023-10-09T07:44:09;4.30;;;4.00;;
2123;SDS011;1068;52.460;13.528;2023-10-09T07:46:59;4.87;;;4.47;;
2123;SDS011;1068;52.460;13.528;2023-10-09T07:49:42;4.37;;;3.97;;
2123;SDS011;1068;52.460;13.528;2023-10-09T07:52:13;5.50;;;4.67;;
2123;SDS011;1068;52.460;13.528;2023-10-09T07:54:40;5.90;;;4.50;;
2123;SDS011;1068;52.460;13.528;2023-10-09T07:57:16;4.57;;;4.27;;
2123;SDS011;1068;52.460;13.528;2023-10-09T07:59:43;4.97;;;4.03;;
2123;SDS011;1068;52.460;13.528;2023-10-09T08:02:19;5.37;;;4.37;;
2123;SDS011;1068;52.460;13.528;2023-10-09T08:04:56;5.30;;;4.87;;
2123;SDS011;1068;52.460;13.528;2023-10-09T08:07:28;5.73;;;5.07;;
2123;SDS011;1068;52.460;13.528;2023-10-09T08:10:00;5.10;;;4.70;;
2123;SDS011;1068;52.460;13.528;2023-10-09T08:12:46;4.77;;;4.37;;
2123;SDS011;1068;52.460;13.528;2023-10-09T08:15:23;4.90;;;4.50;;
2123;SDS011;1068;52.460;13.528;2023-10-09T08:17:53;5.70;;;5.20;;
2123;SDS011;1068;52.460;13.528;2023-10-09T08:20:24;5.13;;;4.63;;
2123;SDS011;1068;52.460;13.528;2023-10-09T08:22:51;4.97;;;4.60;;
2123;SDS011;1068;52.460;13.528;2023-10-09T08:25:20;4.90;;;4.50;;
2123;SDS011;1068;52.460;13.528;2023-10-09T08:27:57;4.67;;;4.33;;
2123;SDS011;1068;52.460;13.528;2023-10-09T08:30:23;4.80;;;4.30;;
2123;SDS011;1068;52.460;13.528;2023-10-09T08:33:15;4.97;;;4.60;;
2123;SDS011;1068;52.460;13.528;2023-10-09T08:36:05;4.80;;;4.10;;
2123;SDS011;1068;52.460;13.528;2023-10-09T08:38:37;5.20;;;4.73;;
2123;SDS011;1068;52.460;13.528;2023-10-09T08:41:08;5.00;;;4.47;;
2123;SDS011;1068;52.460;13.528;2023-10-09T08:43:46;4.90;;;4.50;;
2123;SDS011;1068;52.460;13.528;2023-10-09T08:46:15;4.97;;;4.47;;
2123;SDS011;1068;52.460;13.528;2023-10-09T08:48:43;4.67;;;4.20;;
2123;SDS011;1068;52.460;13.528;2023-10-09T08:51:10;5.60;;;5.10;;
2123;SDS011;1068;52.460;13.528;2023-10-09T08:53:37;5.30;;;4.90;;
2123;SDS011;1068;52.460;13.528;2023-10-09T08:56:08;6.33;;;4.80;;
2123;SDS011;1068;52.460;13.528;2023-10-09T08:58:35;5.93;;;4.80;;
2123;SDS011;1068;52.460;13.528;2023-10-09T09:01:04;7.23;;;5.07;;
2123;SDS011;1068;52.460;13.528;2023-10-09T09:03:37;4.70;;;4.30;;
2123;SDS011;1068;52.460;13.528;2023-10-09T09:06:04;5.13;;;4.57;;
2123;SDS011;1068;52.460;13.528;2023-10-09T09:08:31;4.90;;;4.60;;
2123;SDS011;1068;52.460;13.528;2023-10-09T09:11:01;7.37;;;4.60;;
2123;SDS011;1068;52.460;13.528;2023-10-09T09:13:36;7.20;;;4.67;;
2123;SDS011;1068;52.460;13.528;2023-10-09T09:16:11;5.13;;;4.63;;
2123;SDS011;1068;52.460;13.528;2023-10-09T09:18:48;5.20;;;3.57;;
2123;SDS011;1068;52.460;13.528;2023-10-09T09:21:16;5.17;;;4.77;;
2123;SDS011;1068;52.460;13.528;2023-10-09T09:23:53;5.43;;;5.00;;
2123;SDS011;1068;52.460;13.528;2023-10-09T09:26:30;5.27;;;4.33;;
2123;SDS011;1068;52.460;13.528;2023-10-09T09:29:01;4.50;;;4.17;;
2123;SDS011;1068;52.460;13.528;2023-10-09T09:31:31;6.87;;;4.93;;
2123;SDS011;1068;52.460;13.528;2023-10-09T09:34:02;4.87;;;4.33;;
2123;SDS011;1068;52.460;13.528;2023-10-09T09:36:37;6.17;;;4.90;;
2123;SDS011;1068;52.460;13.528;2023-10-09T09:39:05;5.40;;;4.90;;
2123;SDS011;1068;52.460;13.528;2023-10-09T09:41:44;5.60;;;4.87;;
2123;SDS011;1068;52.460;13.528;2023-10-09T09:44:11;4.60;;;4.10;;
2123;SDS011;1068;52.460;13.528;2023-10-09T09:46:44;4.90;;;4.40;;
2123;SDS011;1068;52.460;13.528;2023-10-09T09:49:12;5.97;;;4.67;;
2123;SDS011;1068;52.460;13.528;2023-10-09T09:51:44;5.53;;;4.90;;
2123;SDS011;1068;52.460;13.528;2023-10-09T09:54:12;5.57;;;5.17;;
2123;SDS011;1068;52.460;13.528;2023-10-09T09:56:41;5.50;;;5.07;;
2123;SDS011;1068;52.460;13.528;2023-10-09T09:59:08;7.40;;;5.07;;
2123;SDS011;1068;52.460;13.528;2023-10-09T10:01:39;6.93;;;4.70;;
2123;SDS011;1068;52.460;13.528;2023-10-09T10:04:09;5.77;;;5.27;;
2123;SDS011;1068;52.460;13.528;2023-10-09T10:06:39;6.37;;;5.20;;
2123;SDS011;1068;52.460;13.528;2023-10-09T10:09:07;6.37;;;5.80;;
2123;SDS011;1068;52.460;13.528;2023-10-09T10:11:43;5.03;;;4.43;;
2123;SDS011;1068;52.460;13.528;2023-10-09T10:14:11;5.43;;;4.93;;
2123;SDS011;1068;52.460;13.528;2023-10-09T10:17:02;6.70;;;5.70;;
2123;SDS011;1068;52.460;13.528;2023-10-09T10:22:49;6.60;;;6.00;;
2123;SDS011;1068;52.460;13.528;2023-10-09T10:25:32;6.53;;;5.90;;
2123;SDS011;1068;52.460;13.528;2023-10-09T10:28:15;5.73;;;5.30;;
2123;SDS011;1068;52.460;13.528;2023-10-09T10:30:53;6.80;;;6.10;;
2123;SDS011;1068;52.460;13.528;2023-10-09T10:33:20;6.70;;;6.00;;
2123;SDS011;1068;52.460;13.528;2023-10-09T10:35:47;7.27;;;6.50;;
2123;SDS011;1068;52.460;13.528;2023-10-09T10:38:28;6.83;;;6.20;;
2123;SDS011;1068;52.460;13.528;2023-10-09T10:41:12;7.67;;;6.37;;
2123;SDS011;1068;52.460;13.528;2023-10-09T10:43:41;6.23;;;5.73;;
2123;SDS011;1068;52.460;13.528;2023-10-09T10:46:29;6.97;;;6.37;;
2123;SDS011;1068;52.460;13.528;2023-10-09T10:49:04;9.27;;;6.10;;
2123;SDS011;1068;52.460;13.528;2023-10-09T10:51:40;7.07;;;5.97;;
2123;SDS011;1068;52.460;13.528;2023-10-09T10:54:19;6.90;;;6.30;;
2123;SDS011;1068;52.460;13.528;2023-10-09T10:57:14;7.17;;;6.47;;
2123;SDS011;1068;52.460;13.528;2023-10-09T10:59:45;7.40;;;6.67;;
2123;SDS011;1068;52.460;13.528;2023-10-09T11:02:14;7.47;;;6.63;;
2123;SDS011;1068;52.460;13.528;2023-10-09T11:04:47;7.70;;;7.00;;
2123;SDS011;1068;52.460;13.528;2023-10-09T11:07:21;8.33;;;7.53;;
2123;SDS011;1068;52.460;13.528;2023-10-09T11:09:53;7.60;;;7.00;;
2123;SDS011;1068;52.460;13.528;2023-10-09T11:12:44;7.07;;;6.37;;
2123;SDS011;1068;52.460;13.528;2023-10-09T11:15:32;8.93;;;6.90;;
2123;SDS011;1068;52.460;13.528;2023-10-09T11:18:09;11.13;;;8.13;;
2123;SDS011;1068;52.460;13.528;2023-10-09T11:20:42;8.20;;;7.50;;
2123;SDS011;1068;52.460;13.528;2023-10-09T11:23:29;8.43;;;6.53;;
2123;SDS011;1068;52.460;13.528;2023-10-09T11:26:04;7.53;;;6.73;;
2123;SDS011;1068;52.460;13.528;2023-10-09T11:28:45;7.37;;;6.60;;
2123;SDS011;1068;52.460;13.528;2023-10-09T11:31:14;8.50;;;7.07;;
2123;SDS011;1068;52.460;13.528;2023-10-09T11:33:44;7.20;;;6.60;;
2123;SDS011;1068;52.460;13.528;2023-10-09T11:36:13;8.13;;;5.67;;
2123;SDS011;1068;52.460;13.528;2023-10-09T11:38:39;6.87;;;6.27;;
2123;SDS011;1068;52.460;13.528;2023-10-09T11:41:15;10.40;;;7.20;;
2123;SDS011;1068;52.460;13.528;2023-10-09T11:43:45;6.97;;;6.40;;
2123;SDS011;1068;52.460;13.528;2023-10-09T11:46:17;9.40;;;7.27;;
2123;SDS011;1068;52.460;13.528;2023-10-09T11:49:04;7.27;;;6.57;;
2123;SDS011;1068;52.460;13.528;2023-10-09T11:51:45;8.07;;;7.13;;
2123;SDS011;1068;52.460;13.528;2023-10-09T11:54:33;7.63;;;6.93;;
2123;SDS011;1068;52.460;13.528;2023-10-09T11:57:02;7.60;;;6.87;;
2123;SDS011;1068;52.460;13.528;2023-10-09T11:59:29;7.53;;;6.87;;
2123;SDS011;1068;52.460;13.528;2023-10-09T12:02:02;9.43;;;8.57;;
2123;SDS011;1068;52.460;13.528;2023-10-09T12:04:29;7.70;;;7.10;;
2123;SDS011;1068;52.460;13.528;2023-10-09T12:06:56;8.67;;;7.83;;
2123;SDS011;1068;52.460;13.528;2023-10-09T12:09:31;7.40;;;6.70;;
2123;SDS011;1068;52.460;13.528;2023-10-09T12:11:59;6.80;;;6.30;;
2123;SDS011;1068;52.460;13.528;2023-10-09T12:14:27;6.93;;;6.33;;
2123;SDS011;1068;52.460;13.528;2023-10-09T12:16:58;7.10;;;6.50;;
2123;SDS011;1068;52.460;13.528;2023-10-09T12:19:30;7.27;;;6.67;;
2123;SDS011;1068;52.460;13.528;2023-10-09T12:21:57;7.27;;;6.67;;
2123;SDS011;1068;52.460;13.528;2023-10-09T12:24:25;7.87;;;7.17;;
2123;SDS011;1068;52.460;13.528;2023-10-09T12:26:52;9.10;;;8.20;;
2123;SDS011;1068;52.460;13.528;2023-10-09T12:29:19;7.60;;;7.00;;
2123;SDS011;1068;52.460;13.528;2023-10-09T12:31:48;8.33;;;7.17;;
2123;SDS011;1068;52.460;13.528;2023-10-09T12:34:23;6.17;;;5.73;;
2123;SDS011;1068;52.460;13.528;2023-10-09T12:36:51;6.80;;;6.13;;
2123;SDS011;1068;52.460;13.528;2023-10-09T12:39:18;7.30;;;6.70;;
2123;SDS011;1068;52.460;13.528;2023-10-09T12:41:46;6.87;;;6.20;;
2123;SDS011;1068;52.460;13.528;2023-10-09T12:44:13;5.87;;;5.37;;
2123;SDS011;1068;52.460;13.528;2023-10-09T12:46:40;7.10;;;6.43;;
2123;SDS011;1068;52.460;13.528;2023-10-09T12:49:18;7.47;;;6.10;;
2123;SDS011;1068;52.460;13.528;2023-10-09T12:51:50;7.00;;;6.30;;
2123;SDS011;1068;52.460;13.528;2023-10-09T12:54:16;6.20;;;5.70;;
2123;SDS011;1068;52.460;13.528;2023-10-09T12:56:45;6.47;;;5.17;;
2123;SDS011;1068;52.460;13.528;2023-10-09T12:59:14;6.13;;;5.63;;
2123;SDS011;1068;52.460;13.528;2023-10-09T13:01:44;6.70;;;5.90;;
2123;SDS011;1068;52.460;13.528;2023-10-09T13:04:18;6.40;;;4.90;;
2123;SDS011;1068;52.460;13.528;2023-10-09T13:06:48;5.90;;;5.43;;
2123;SDS011;1068;52.460;13.528;2023-10-09T13:09:18;4.27;;;3.97;;
2123;SDS011;1068;52.460;13.528;2023-10-09T13:11:57;5.50;;;5.00;;
2123;SDS011;1068;52.460;13.528;2023-10-09T13:14:25;4.97;;;4.57;;
2123;SDS011;1068;52.460;13.528;2023-10-09T13:16:52;10.93;;;5.27;;
2123;SDS011;1068;52.460;13.528;2023-10-09T13:19:20;8.40;;;4.10;;
2123;SDS011;1068;52.460;13.528;2023-10-09T13:21:49;5.83;;;5.20;;
2123;SDS011;1068;52.460;13.528;2023-10-09T13:24:16;6.60;;;5.10;;
2123;SDS011;1068;52.460;13.528;2023-10-09T13:26:45;5.67;;;5.17;;
2123;SDS011;1068;52.460;13.528;2023-10-09T13:29:16;4.73;;;4.40;;
2123;SDS011;1068;52.460;13.528;2023-10-09T13:31:47;5.90;;;5.30;;
2123;SDS011;1068;52.460;13.528;2023-10-09T13:34:17;7.23;;;5.43;;
2123;SDS011;1068;52.460;13.528;2023-10-09T13:36:45;5.33;;;4.83;;
2123;SDS011;1068;52.460;13.528;2023-10-09T13:39:18;5.20;;;4.70;;
2123;SDS011;1068;52.460;13.528;2023-10-09T13:41:49;6.10;;;4.50;;
2123;SDS011;1068;52.460;13.528;2023-10-09T13:44:22;5.10;;;4.60;;
2123;SDS011;1068;52.460;13.528;2023-10-09T13:46:51;5.07;;;4.50;;
2123;SDS011;1068;52.460;13.528;2023-10-09T13:49:18;5.60;;;5.10;;
2123;SDS011;1068;52.460;13.528;2023-10-09T13:51:49;7.33;;;4.73;;
2123;SDS011;1068;52.460;13.528;2023-10-09T13:54:16;5.40;;;4.87;;
2123;SDS011;1068;52.460;13.528;2023-10-09T13:56:53;5.40;;;4.90;;
2123;SDS011;1068;52.460;13.528;2023-10-09T13:59:20;4.73;;;4.10;;
2123;SDS011;1068;52.460;13.528;2023-10-09T14:01:48;6.87;;;6.17;;
2123;SDS011;1068;52.460;13.528;2023-10-09T14:04:15;5.97;;;5.20;;
2123;SDS011;1068;52.460;13.528;2023-10-09T14:06:44;5.40;;;4.93;;
2123;SDS011;1068;52.460;13.528;2023-10-09T14:09:13;4.60;;;4.23;;
2123;SDS011;1068;52.460;13.528;2023-10-09T14:11:56;4.67;;;4.37;;
2123;SDS011;1068;52.460;13.528;2023-10-09T14:14:31;4.93;;;4.53;;
2123;SDS011;1068;52.460;13.528;2023-10-09T14:16:58;6.87;;;4.40;;
2123;SDS011;1068;52.460;13.528;2023-10-09T14:19:25;5.00;;;4.60;;
2123;SDS011;1068;52.460;13.528;2023-10-09T14:21:52;4.50;;;4.10;;
2123;SDS011;1068;52.460;13.528;2023-10-09T14:24:20;4.03;;;3.83;;
2123;SDS011;1068;52.460;13.528;2023-10-09T14:26:51;4.60;;;4.20;;
2123;SDS011;1068;52.460;13.528;2023-10-09T14:29:21;4.80;;;4.40;;
2123;SDS011;1068;52.460;13.528;2023-10-09T14:31:51;5.80;;;4.90;;
2123;SDS011;1068;52.460;13.528;2023-10-09T14:34:25;4.93;;;4.00;;
2123;SDS011;1068;52.460;13.528;2023-10-09T14:36:57;5.00;;;4.50;;
2123;SDS011;1068;52.460;13.528;2023-10-09T14:39:26;4.70;;;4.30;;
2123;SDS011;1068;52.460;13.528;2023-10-09T14:41:54;4.70;;;4.30;;
2123;SDS011;1068;52.460;13.528;2023-10-09T14:44:22;4.40;;;4.10;;
2123;SDS011;1068;52.460;13.528;2023-10-09T14:46:49;5.47;;;4.87;;
2123;SDS011;1068;52.460;13.528;2023-10-09T14:49:16;4.53;;;4.13;;
2123;SDS011;1068;52.460;13.528;2023-10-09T14:51:46;6.40;;;4.70;;
2123;SDS011;1068;52.460;13.528;2023-10-09T14:54:13;5.13;;;4.63;;
2123;SDS011;1068;52.460;13.528;2023-10-09T14:56:44;4.70;;;4.30;;
2123;SDS011;1068;52.460;13.528;2023-10-09T14:59:11;4.60;;;4.20;;
2123;SDS011;1068;52.460;13.528;2023-10-09T15:01:38;6.60;;;4.70;;
2123;SDS011;1068;52.460;13.528;2023-10-09T15:04:05;4.73;;;4.30;;
2123;SDS011;1068;52.460;13.528;2023-10-09T15:06:37;4.67;;;4.20;;
2123;SDS011;1068;52.460;13.528;2023-10-09T15:09:04;4.90;;;4.60;;
2123;SDS011;1068;52.460;13.528;2023-10-09T15:11:34;5.17;;;4.77;;
2123;SDS011;1068;52.460;13.528;2023-10-09T15:14:05;4.90;;;4.30;;
2123;SDS011;1068;52.460;13.528;2023-10-09T15:16:32;3.80;;;3.50;;
2123;SDS011;1068;52.460;13.528;2023-10-09T15:18:59;6.13;;;4.60;;
2123;SDS011;1068;52.460;13.528;2023-10-09T15:21:27;4.33;;;4.03;;
2123;SDS011;1068;52.460;13.528;2023-10-09T15:23:57;5.40;;;4.90;;
2123;SDS011;1068;52.460;13.528;2023-10-09T15:26:24;5.13;;;4.00;;
2123;SDS011;1068;52.460;13.528;2023-10-09T15:28:57;4.70;;;4.10;;
2123;SDS011;1068;52.460;13.528;2023-10-09T15:31:26;5.30;;;4.67;;
2123;SDS011;1068;52.460;13.528;2023-10-09T15:33:56;5.50;;;5.10;;
2123;SDS011;1068;52.460;13.528;2023-10-09T15:36:23;3.80;;;3.50;;
2123;SDS011;1068;52.460;13.528;2023-10-09T15:38:53;4.93;;;4.40;;